Aviation Digital Data Service (ADDS)

Output produced by TAFs form (1959 UTC 25 February 2018)
found at http://aviationweather.gov/adds/tafs/
 
KGFL 251931Z 2520/2618 VRB03KT 2SM BR BKN003 OVC025 
     TEMPO 2520/2523 4SM BR SCT003 OVC025 
     FM252300 VRB03KT 2SM BR OVC005 
     FM260600 20005KT 4SM BR FEW002 SCT200 
     FM261200 24007KT P6SM SCT040